sensor_id;sensor_type;location;lat;lon;timestamp;temperature;humidity
14409;DHT22;7289;50.706;4.992;2023-07-24T00:01:58;19.80;99.90
14409;DHT22;7289;50.706;4.992;2023-07-24T00:04:26;19.80;99.90
14409;DHT22;7289;50.706;4.992;2023-07-24T00:06:55;19.80;99.90
14409;DHT22;7289;50.706;4.992;2023-07-24T00:09:23;19.80;99.90
14409;DHT22;7289;50.706;4.992;2023-07-24T00:11:52;19.80;99.90
14409;DHT22;7289;50.706;4.992;2023-07-24T00:14:20;19.90;99.90
14409;DHT22;7289;50.706;4.992;2023-07-24T00:16:50;19.90;99.90
14409;DHT22;7289;50.706;4.992;2023-07-24T00:19:18;19.80;99.90
14409;DHT22;7289;50.706;4.992;2023-07-24T00:21:47;19.80;99.90
14409;DHT22;7289;50.706;4.992;2023-07-24T00:24:15;19.80;99.90
14409;DHT22;7289;50.706;4.992;2023-07-24T00:26:44;19.90;99.90
14409;DHT22;7289;50.706;4.992;2023-07-24T00:29:12;19.90;99.90
14409;DHT22;7289;50.706;4.992;2023-07-24T00:31:41;20.00;99.90
14409;DHT22;7289;50.706;4.992;2023-07-24T00:34:11;19.90;99.90
14409;DHT22;7289;50.706;4.992;2023-07-24T00:36:39;19.90;99.90
14409;DHT22;7289;50.706;4.992;2023-07-24T00:39:08;19.90;99.90
14409;DHT22;7289;50.706;4.992;2023-07-24T00:41:37;19.90;99.90
14409;DHT22;7289;50.706;4.992;2023-07-24T00:44:06;19.90;99.90
14409;DHT22;7289;50.706;4.992;2023-07-24T00:46:35;20.00;99.90
14409;DHT22;7289;50.706;4.992;2023-07-24T00:49:04;20.00;99.90
14409;DHT22;7289;50.706;4.992;2023-07-24T00:51:34;20.00;99.90
14409;DHT22;7289;50.706;4.992;2023-07-24T00:54:05;20.00;99.90
14409;DHT22;7289;50.706;4.992;2023-07-24T00:56:34;20.00;99.90
14409;DHT22;7289;50.706;4.992;2023-07-24T00:59:03;20.00;99.90
14409;DHT22;7289;50.706;4.992;2023-07-24T01:01:31;20.00;99.90
14409;DHT22;7289;50.706;4.992;2023-07-24T01:04:01;20.00;99.90
14409;DHT22;7289;50.706;4.992;2023-07-24T01:06:32;20.00;99.90
14409;DHT22;7289;50.706;4.992;2023-07-24T01:09:04;20.00;99.90
14409;DHT22;7289;50.706;4.992;2023-07-24T01:11:36;20.00;99.90
14409;DHT22;7289;50.706;4.992;2023-07-24T01:14:09;20.00;99.90
14409;DHT22;7289;50.706;4.992;2023-07-24T01:16:41;20.00;99.90
14409;DHT22;7289;50.706;4.992;2023-07-24T01:19:13;20.00;99.90
14409;DHT22;7289;50.706;4.992;2023-07-24T01:21:58;19.90;99.90
14409;DHT22;7289;50.706;4.992;2023-07-24T01:24:37;19.90;99.90
14409;DHT22;7289;50.706;4.992;2023-07-24T01:27:20;19.90;99.90
14409;DHT22;7289;50.706;4.992;2023-07-24T01:29:48;19.90;99.90
14409;DHT22;7289;50.706;4.992;2023-07-24T01:32:17;19.80;99.90
14409;DHT22;7289;50.706;4.992;2023-07-24T01:34:47;19.70;99.90
14409;DHT22;7289;50.706;4.992;2023-07-24T01:37:16;19.70;99.90
14409;DHT22;7289;50.706;4.992;2023-07-24T01:39:46;19.50;99.90
14409;DHT22;7289;50.706;4.992;2023-07-24T01:42:17;19.30;99.90
14409;DHT22;7289;50.706;4.992;2023-07-24T01:44:51;19.30;99.90
14409;DHT22;7289;50.706;4.992;2023-07-24T01:47:19;19.30;99.90
14409;DHT22;7289;50.706;4.992;2023-07-24T01:49:48;19.30;99.90
14409;DHT22;7289;50.706;4.992;2023-07-24T01:52:17;19.20;99.90
14409;DHT22;7289;50.706;4.992;2023-07-24T01:54:46;19.20;99.90
14409;DHT22;7289;50.706;4.992;2023-07-24T01:57:14;19.20;99.90
14409;DHT22;7289;50.706;4.992;2023-07-24T01:59:44;19.20;99.90
14409;DHT22;7289;50.706;4.992;2023-07-24T02:02:12;19.20;99.90
14409;DHT22;7289;50.706;4.992;2023-07-24T02:04:41;19.10;99.90
14409;DHT22;7289;50.706;4.992;2023-07-24T02:07:09;19.10;99.90
14409;DHT22;7289;50.706;4.992;2023-07-24T02:09:37;19.10;99.90
14409;DHT22;7289;50.706;4.992;2023-07-24T02:12:09;19.10;99.90
14409;DHT22;7289;50.706;4.992;2023-07-24T02:14:38;19.10;99.90
14409;DHT22;7289;50.706;4.992;2023-07-24T02:17:07;19.10;99.90
14409;DHT22;7289;50.706;4.992;2023-07-24T02:19:36;19.00;99.90
14409;DHT22;7289;50.706;4.992;2023-07-24T02:22:05;19.00;99.90
14409;DHT22;7289;50.706;4.992;2023-07-24T02:24:35;19.00;99.90
14409;DHT22;7289;50.706;4.992;2023-07-24T02:27:04;19.00;99.90
14409;DHT22;7289;50.706;4.992;2023-07-24T02:29:33;19.00;99.90
14409;DHT22;7289;50.706;4.992;2023-07-24T02:32:03;19.00;99.90
14409;DHT22;7289;50.706;4.992;2023-07-24T02:34:33;19.00;99.90
14409;DHT22;7289;50.706;4.992;2023-07-24T02:37:01;19.00;99.90
14409;DHT22;7289;50.706;4.992;2023-07-24T02:39:30;18.90;99.90
14409;DHT22;7289;50.706;4.992;2023-07-24T02:41:58;18.90;99.90
14409;DHT22;7289;50.706;4.992;2023-07-24T02:44:26;19.00;99.90
14409;DHT22;7289;50.706;4.992;2023-07-24T02:46:55;19.00;99.90
14409;DHT22;7289;50.706;4.992;2023-07-24T02:49:23;19.00;99.90
14409;DHT22;7289;50.706;4.992;2023-07-24T02:51:53;19.00;99.90
14409;DHT22;7289;50.706;4.992;2023-07-24T02:54:21;19.10;99.90
14409;DHT22;7289;50.706;4.992;2023-07-24T02:56:49;19.00;99.90
14409;DHT22;7289;50.706;4.992;2023-07-24T02:59:18;19.00;99.90
14409;DHT22;7289;50.706;4.992;2023-07-24T03:01:47;19.00;99.90
14409;DHT22;7289;50.706;4.992;2023-07-24T03:04:15;19.00;99.90
14409;DHT22;7289;50.706;4.992;2023-07-24T03:06:45;19.00;99.90
14409;DHT22;7289;50.706;4.992;2023-07-24T03:09:15;19.00;99.90
14409;DHT22;7289;50.706;4.992;2023-07-24T03:11:43;19.00;99.90
14409;DHT22;7289;50.706;4.992;2023-07-24T03:14:12;19.00;99.90
14409;DHT22;7289;50.706;4.992;2023-07-24T03:16:40;19.10;99.90
14409;DHT22;7289;50.706;4.992;2023-07-24T03:19:08;19.10;99.90
14409;DHT22;7289;50.706;4.992;2023-07-24T03:21:37;19.00;99.90
14409;DHT22;7289;50.706;4.992;2023-07-24T03:24:05;19.00;99.90
14409;DHT22;7289;50.706;4.992;2023-07-24T03:26:35;19.00;99.90
14409;DHT22;7289;50.706;4.992;2023-07-24T03:29:05;19.00;99.90
14409;DHT22;7289;50.706;4.992;2023-07-24T03:31:33;19.00;99.90
14409;DHT22;7289;50.706;4.992;2023-07-24T03:34:02;19.00;99.90
14409;DHT22;7289;50.706;4.992;2023-07-24T03:36:30;19.10;99.90
14409;DHT22;7289;50.706;4.992;2023-07-24T03:38:59;19.10;99.90
14409;DHT22;7289;50.706;4.992;2023-07-24T03:41:27;19.10;99.90
14409;DHT22;7289;50.706;4.992;2023-07-24T03:43:57;19.00;99.90
14409;DHT22;7289;50.706;4.992;2023-07-24T03:46:25;18.90;99.90
14409;DHT22;7289;50.706;4.992;2023-07-24T03:48:54;18.90;99.90
14409;DHT22;7289;50.706;4.992;2023-07-24T03:51:22;18.90;99.90
14409;DHT22;7289;50.706;4.992;2023-07-24T03:53:51;18.90;99.90
14409;DHT22;7289;50.706;4.992;2023-07-24T03:56:21;18.80;99.90
14409;DHT22;7289;50.706;4.992;2023-07-24T03:58:49;18.70;99.90
14409;DHT22;7289;50.706;4.992;2023-07-24T04:01:19;18.70;99.90
14409;DHT22;7289;50.706;4.992;2023-07-24T04:03:47;18.70;99.90
14409;DHT22;7289;50.706;4.992;2023-07-24T04:06:16;18.70;99.90
14409;DHT22;7289;50.706;4.992;2023-07-24T04:08:44;18.70;99.90
14409;DHT22;7289;50.706;4.992;2023-07-24T04:11:12;18.70;99.90
14409;DHT22;7289;50.706;4.992;2023-07-24T04:13:40;18.70;99.90
14409;DHT22;7289;50.706;4.992;2023-07-24T04:16:09;18.70;99.90
14409;DHT22;7289;50.706;4.992;2023-07-24T04:18:38;18.80;99.90
14409;DHT22;7289;50.706;4.992;2023-07-24T04:21:07;18.80;99.90
14409;DHT22;7289;50.706;4.992;2023-07-24T04:23:35;18.70;99.90
14409;DHT22;7289;50.706;4.992;2023-07-24T04:26:04;18.70;99.90
14409;DHT22;7289;50.706;4.992;2023-07-24T04:28:32;18.70;99.90
14409;DHT22;7289;50.706;4.992;2023-07-24T04:31:01;18.70;99.90
14409;DHT22;7289;50.706;4.992;2023-07-24T04:33:29;18.70;99.90
14409;DHT22;7289;50.706;4.992;2023-07-24T04:36:00;18.70;99.90
14409;DHT22;7289;50.706;4.992;2023-07-24T04:38:29;18.80;99.90
14409;DHT22;7289;50.706;4.992;2023-07-24T04:40:57;18.80;99.90
14409;DHT22;7289;50.706;4.992;2023-07-24T04:43:28;18.80;99.90
14409;DHT22;7289;50.706;4.992;2023-07-24T04:45:59;18.70;99.90
14409;DHT22;7289;50.706;4.992;2023-07-24T04:48:28;18.80;99.90
14409;DHT22;7289;50.706;4.992;2023-07-24T04:50:56;18.80;99.90
14409;DHT22;7289;50.706;4.992;2023-07-24T04:53:26;18.70;99.90
14409;DHT22;7289;50.706;4.992;2023-07-24T04:55:54;18.80;99.90
14409;DHT22;7289;50.706;4.992;2023-07-24T04:58:23;18.90;99.90
14409;DHT22;7289;50.706;4.992;2023-07-24T05:00:51;18.90;99.90
14409;DHT22;7289;50.706;4.992;2023-07-24T05:03:19;18.90;99.90
14409;DHT22;7289;50.706;4.992;2023-07-24T05:05:48;19.00;99.90
14409;DHT22;7289;50.706;4.992;2023-07-24T05:08:22;19.10;99.90
14409;DHT22;7289;50.706;4.992;2023-07-24T05:10:55;19.20;99.90
14409;DHT22;7289;50.706;4.992;2023-07-24T05:13:24;19.40;99.90
14409;DHT22;7289;50.706;4.992;2023-07-24T05:15:52;19.50;99.90
14409;DHT22;7289;50.706;4.992;2023-07-24T05:18:20;19.50;99.90
14409;DHT22;7289;50.706;4.992;2023-07-24T05:20:49;19.30;99.90
14409;DHT22;7289;50.706;4.992;2023-07-24T05:23:18;19.30;99.90
14409;DHT22;7289;50.706;4.992;2023-07-24T05:25:47;19.40;99.90
14409;DHT22;7289;50.706;4.992;2023-07-24T05:28:16;19.30;99.90
14409;DHT22;7289;50.706;4.992;2023-07-24T05:30:45;19.30;99.90
14409;DHT22;7289;50.706;4.992;2023-07-24T05:33:13;19.20;99.90
14409;DHT22;7289;50.706;4.992;2023-07-24T05:35:41;19.20;99.90
14409;DHT22;7289;50.706;4.992;2023-07-24T05:38:10;19.10;99.90
14409;DHT22;7289;50.706;4.992;2023-07-24T05:40:38;19.20;99.90
14409;DHT22;7289;50.706;4.992;2023-07-24T05:43:07;19.20;99.90
14409;DHT22;7289;50.706;4.992;2023-07-24T05:45:36;19.20;99.90
14409;DHT22;7289;50.706;4.992;2023-07-24T05:48:05;19.20;99.90
14409;DHT22;7289;50.706;4.992;2023-07-24T05:50:33;19.30;99.90
14409;DHT22;7289;50.706;4.992;2023-07-24T05:53:01;19.30;99.90
14409;DHT22;7289;50.706;4.992;2023-07-24T05:55:30;19.30;99.90
14409;DHT22;7289;50.706;4.992;2023-07-24T05:57:58;19.20;99.90
14409;DHT22;7289;50.706;4.992;2023-07-24T06:00:27;19.30;99.90
14409;DHT22;7289;50.706;4.992;2023-07-24T06:02:57;19.40;99.90
14409;DHT22;7289;50.706;4.992;2023-07-24T06:05:25;19.40;99.90
14409;DHT22;7289;50.706;4.992;2023-07-24T06:07:54;19.30;99.90
14409;DHT22;7289;50.706;4.992;2023-07-24T06:10:22;19.40;99.90
14409;DHT22;7289;50.706;4.992;2023-07-24T06:12:50;19.40;99.90
14409;DHT22;7289;50.706;4.992;2023-07-24T06:15:19;19.40;99.90
14409;DHT22;7289;50.706;4.992;2023-07-24T06:17:47;19.30;99.90
14409;DHT22;7289;50.706;4.992;2023-07-24T06:20:21;19.40;99.90
14409;DHT22;7289;50.706;4.992;2023-07-24T06:22:50;19.50;99.90
14409;DHT22;7289;50.706;4.992;2023-07-24T06:25:18;19.40;99.90
14409;DHT22;7289;50.706;4.992;2023-07-24T06:27:46;19.40;99.90
14409;DHT22;7289;50.706;4.992;2023-07-24T06:30:14;19.50;99.90
14409;DHT22;7289;50.706;4.992;2023-07-24T06:32:43;19.50;99.90
14409;DHT22;7289;50.706;4.992;2023-07-24T06:35:11;19.60;99.90
14409;DHT22;7289;50.706;4.992;2023-07-24T06:37:41;19.70;99.90
14409;DHT22;7289;50.706;4.992;2023-07-24T06:40:10;19.70;99.90
14409;DHT22;7289;50.706;4.992;2023-07-24T06:42:38;19.70;99.90
14409;DHT22;7289;50.706;4.992;2023-07-24T06:45:07;19.80;99.90
14409;DHT22;7289;50.706;4.992;2023-07-24T06:47:36;19.80;99.90
14409;DHT22;7289;50.706;4.992;2023-07-24T06:50:06;20.00;99.90
14409;DHT22;7289;50.706;4.992;2023-07-24T06:52:35;20.10;99.90
14409;DHT22;7289;50.706;4.992;2023-07-24T06:55:05;20.20;99.90
14409;DHT22;7289;50.706;4.992;2023-07-24T06:57:34;20.50;99.90
14409;DHT22;7289;50.706;4.992;2023-07-24T07:00:03;21.00;99.90
14409;DHT22;7289;50.706;4.992;2023-07-24T07:02:31;21.10;99.90
14409;DHT22;7289;50.706;4.992;2023-07-24T07:05:00;21.30;99.90
14409;DHT22;7289;50.706;4.992;2023-07-24T07:07:28;21.40;99.90
14409;DHT22;7289;50.706;4.992;2023-07-24T07:09:57;21.50;99.90
14409;DHT22;7289;50.706;4.992;2023-07-24T07:12:27;21.50;99.90
14409;DHT22;7289;50.706;4.992;2023-07-24T07:14:55;21.30;99.90
14409;DHT22;7289;50.706;4.992;2023-07-24T07:17:24;21.30;99.90
14409;DHT22;7289;50.706;4.992;2023-07-24T07:19:52;21.20;99.90
14409;DHT22;7289;50.706;4.992;2023-07-24T07:22:23;21.00;99.90
14409;DHT22;7289;50.706;4.992;2023-07-24T07:24:51;20.90;99.90
14409;DHT22;7289;50.706;4.992;2023-07-24T07:27:20;20.80;99.90
14409;DHT22;7289;50.706;4.992;2023-07-24T07:29:50;21.00;99.90
14409;DHT22;7289;50.706;4.992;2023-07-24T07:32:18;21.00;99.90
14409;DHT22;7289;50.706;4.992;2023-07-24T07:34:46;21.10;99.90
14409;DHT22;7289;50.706;4.992;2023-07-24T07:37:15;21.30;99.90
14409;DHT22;7289;50.706;4.992;2023-07-24T07:39:43;21.50;99.90
14409;DHT22;7289;50.706;4.992;2023-07-24T07:42:12;21.60;99.90
14409;DHT22;7289;50.706;4.992;2023-07-24T07:44:45;21.90;99.90
14409;DHT22;7289;50.706;4.992;2023-07-24T07:47:15;22.20;99.90
14409;DHT22;7289;50.706;4.992;2023-07-24T07:49:43;22.50;99.90
14409;DHT22;7289;50.706;4.992;2023-07-24T07:52:11;22.60;99.90
14409;DHT22;7289;50.706;4.992;2023-07-24T07:54:46;22.50;99.90
14409;DHT22;7289;50.706;4.992;2023-07-24T07:57:15;22.50;99.90
14409;DHT22;7289;50.706;4.992;2023-07-24T07:59:43;22.40;99.90
14409;DHT22;7289;50.706;4.992;2023-07-24T08:02:12;22.30;99.90
14409;DHT22;7289;50.706;4.992;2023-07-24T08:04:41;22.20;99.90
14409;DHT22;7289;50.706;4.992;2023-07-24T08:07:10;22.50;99.90
14409;DHT22;7289;50.706;4.992;2023-07-24T08:09:38;22.40;99.90
14409;DHT22;7289;50.706;4.992;2023-07-24T08:12:07;22.30;99.90
14409;DHT22;7289;50.706;4.992;2023-07-24T08:14:35;22.50;99.90
14409;DHT22;7289;50.706;4.992;2023-07-24T08:17:04;22.30;99.90
14409;DHT22;7289;50.706;4.992;2023-07-24T08:19:33;22.30;99.90
14409;DHT22;7289;50.706;4.992;2023-07-24T08:22:03;22.40;99.90
14409;DHT22;7289;50.706;4.992;2023-07-24T08:24:34;22.50;99.90
14409;DHT22;7289;50.706;4.992;2023-07-24T08:27:03;22.60;99.90
14409;DHT22;7289;50.706;4.992;2023-07-24T08:29:31;22.90;99.90
14409;DHT22;7289;50.706;4.992;2023-07-24T08:32:00;23.00;99.90
14409;DHT22;7289;50.706;4.992;2023-07-24T08:34:28;23.20;99.90
14409;DHT22;7289;50.706;4.992;2023-07-24T08:36:57;23.10;99.90
14409;DHT22;7289;50.706;4.992;2023-07-24T08:39:26;23.30;99.90
14409;DHT22;7289;50.706;4.992;2023-07-24T08:41:56;23.20;99.90
14409;DHT22;7289;50.706;4.992;2023-07-24T08:44:25;23.20;99.90
14409;DHT22;7289;50.706;4.992;2023-07-24T08:46:58;23.20;99.90
14409;DHT22;7289;50.706;4.992;2023-07-24T08:49:29;23.10;99.90
14409;DHT22;7289;50.706;4.992;2023-07-24T08:51:58;22.80;99.90
14409;DHT22;7289;50.706;4.992;2023-07-24T08:54:30;22.70;99.90
14409;DHT22;7289;50.706;4.992;2023-07-24T08:56:59;22.50;99.90
14409;DHT22;7289;50.706;4.992;2023-07-24T08:59:27;22.60;99.90
14409;DHT22;7289;50.706;4.992;2023-07-24T09:01:56;22.40;99.90
14409;DHT22;7289;50.706;4.992;2023-07-24T09:04:25;22.10;99.90
14409;DHT22;7289;50.706;4.992;2023-07-24T09:06:56;22.00;99.90
14409;DHT22;7289;50.706;4.992;2023-07-24T09:09:30;21.90;99.90
14409;DHT22;7289;50.706;4.992;2023-07-24T09:11:59;21.80;99.90
14409;DHT22;7289;50.706;4.992;2023-07-24T09:14:28;21.50;99.90
14409;DHT22;7289;50.706;4.992;2023-07-24T09:17:03;21.40;99.90
14409;DHT22;7289;50.706;4.992;2023-07-24T09:19:31;21.20;99.90
14409;DHT22;7289;50.706;4.992;2023-07-24T09:22:10;21.20;99.90
14409;DHT22;7289;50.706;4.992;2023-07-24T09:24:50;21.10;99.90
14409;DHT22;7289;50.706;4.992;2023-07-24T09:27:19;21.20;99.90
14409;DHT22;7289;50.706;4.992;2023-07-24T09:29:48;21.40;99.90
14409;DHT22;7289;50.706;4.992;2023-07-24T09:32:21;21.50;99.90
14409;DHT22;7289;50.706;4.992;2023-07-24T09:34:50;21.90;99.90
14409;DHT22;7289;50.706;4.992;2023-07-24T09:37:26;22.60;99.90
14409;DHT22;7289;50.706;4.992;2023-07-24T09:39:56;23.00;99.90
14409;DHT22;7289;50.706;4.992;2023-07-24T09:42:30;23.10;99.90
14409;DHT22;7289;50.706;4.992;2023-07-24T09:45:00;23.40;99.90
14409;DHT22;7289;50.706;4.992;2023-07-24T09:47:30;23.50;99.90
14409;DHT22;7289;50.706;4.992;2023-07-24T09:50:19;23.40;99.90
14409;DHT22;7289;50.706;4.992;2023-07-24T09:52:48;23.60;99.90
14409;DHT22;7289;50.706;4.992;2023-07-24T09:55:22;23.60;99.90
14409;DHT22;7289;50.706;4.992;2023-07-24T09:57:57;23.50;99.90
14409;DHT22;7289;50.706;4.992;2023-07-24T10:00:27;23.20;99.90
14409;DHT22;7289;50.706;4.992;2023-07-24T10:02:56;23.30;99.90
14409;DHT22;7289;50.706;4.992;2023-07-24T10:05:24;23.50;99.90
14409;DHT22;7289;50.706;4.992;2023-07-24T10:07:53;23.60;99.90
14409;DHT22;7289;50.706;4.992;2023-07-24T10:10:24;23.50;99.90
14409;DHT22;7289;50.706;4.992;2023-07-24T10:12:54;22.90;99.90
14409;DHT22;7289;50.706;4.992;2023-07-24T10:15:23;22.20;99.90
14409;DHT22;7289;50.706;4.992;2023-07-24T10:18:01;21.70;99.90
14409;DHT22;7289;50.706;4.992;2023-07-24T10:20:33;21.20;99.90
14409;DHT22;7289;50.706;4.992;2023-07-24T10:23:04;21.00;99.90
14409;DHT22;7289;50.706;4.992;2023-07-24T10:25:37;20.80;99.90
14409;DHT22;7289;50.706;4.992;2023-07-24T10:28:08;20.40;99.90
14409;DHT22;7289;50.706;4.992;2023-07-24T10:30:39;20.20;99.90
14409;DHT22;7289;50.706;4.992;2023-07-24T10:33:09;20.10;99.90
14409;DHT22;7289;50.706;4.992;2023-07-24T10:35:40;19.90;99.90
14409;DHT22;7289;50.706;4.992;2023-07-24T10:38:09;19.70;99.90
14409;DHT22;7289;50.706;4.992;2023-07-24T10:40:40;19.10;99.90
14409;DHT22;7289;50.706;4.992;2023-07-24T10:43:10;18.50;99.90
14409;DHT22;7289;50.706;4.992;2023-07-24T10:45:42;18.40;99.90
14409;DHT22;7289;50.706;4.992;2023-07-24T10:48:11;18.20;99.90
14409;DHT22;7289;50.706;4.992;2023-07-24T10:50:40;18.10;99.90
14409;DHT22;7289;50.706;4.992;2023-07-24T10:53:09;17.90;99.90
14409;DHT22;7289;50.706;4.992;2023-07-24T10:55:39;18.10;99.90
14409;DHT22;7289;50.706;4.992;2023-07-24T10:58:08;18.10;99.90
14409;DHT22;7289;50.706;4.992;2023-07-24T11:00:38;18.30;99.90
14409;DHT22;7289;50.706;4.992;2023-07-24T11:03:09;18.30;99.90
14409;DHT22;7289;50.706;4.992;2023-07-24T11:05:39;18.50;99.90
14409;DHT22;7289;50.706;4.992;2023-07-24T11:08:11;18.60;99.90
14409;DHT22;7289;50.706;4.992;2023-07-24T11:10:46;18.90;99.90
14409;DHT22;7289;50.706;4.992;2023-07-24T11:13:15;19.20;99.90
14409;DHT22;7289;50.706;4.992;2023-07-24T11:15:44;19.40;99.90
14409;DHT22;7289;50.706;4.992;2023-07-24T11:18:12;19.60;99.90
14409;DHT22;7289;50.706;4.992;2023-07-24T11:20:44;19.70;99.90
14409;DHT22;7289;50.706;4.992;2023-07-24T11:23:13;19.70;99.90
14409;DHT22;7289;50.706;4.992;2023-07-24T11:25:42;19.80;99.90
14409;DHT22;7289;50.706;4.992;2023-07-24T11:28:13;19.70;99.90
14409;DHT22;7289;50.706;4.992;2023-07-24T11:30:42;19.70;99.90
14409;DHT22;7289;50.706;4.992;2023-07-24T11:33:12;20.00;99.90
14409;DHT22;7289;50.706;4.992;2023-07-24T11:35:45;20.40;99.90
14409;DHT22;7289;50.706;4.992;2023-07-24T11:38:14;20.50;99.90
14409;DHT22;7289;50.706;4.992;2023-07-24T11:40:43;20.90;99.90
14409;DHT22;7289;50.706;4.992;2023-07-24T11:43:17;21.20;99.90
14409;DHT22;7289;50.706;4.992;2023-07-24T11:45:46;21.50;99.90
14409;DHT22;7289;50.706;4.992;2023-07-24T11:48:16;21.80;99.90
14409;DHT22;7289;50.706;4.992;2023-07-24T11:50:45;21.80;99.90
14409;DHT22;7289;50.706;4.992;2023-07-24T11:53:21;22.00;99.90
14409;DHT22;7289;50.706;4.992;2023-07-24T11:55:51;22.10;99.90
14409;DHT22;7289;50.706;4.992;2023-07-24T11:58:21;21.90;99.90
14409;DHT22;7289;50.706;4.992;2023-07-24T12:00:50;21.70;99.90
14409;DHT22;7289;50.706;4.992;2023-07-24T12:03:20;21.40;99.90
14409;DHT22;7289;50.706;4.992;2023-07-24T12:05:49;21.10;99.90
14409;DHT22;7289;50.706;4.992;2023-07-24T12:08:19;20.60;99.90
14409;DHT22;7289;50.706;4.992;2023-07-24T12:10:50;20.20;99.90
14409;DHT22;7289;50.706;4.992;2023-07-24T12:13:20;20.00;99.90
14409;DHT22;7289;50.706;4.992;2023-07-24T12:15:48;19.70;99.90
14409;DHT22;7289;50.706;4.992;2023-07-24T12:18:18;19.80;99.90
14409;DHT22;7289;50.706;4.992;2023-07-24T12:20:46;20.10;99.90
14409;DHT22;7289;50.706;4.992;2023-07-24T12:23:15;20.30;99.90
14409;DHT22;7289;50.706;4.992;2023-07-24T12:25:44;20.40;99.90
14409;DHT22;7289;50.706;4.992;2023-07-24T12:28:12;20.60;99.90
14409;DHT22;7289;50.706;4.992;2023-07-24T12:30:42;20.70;99.90
14409;DHT22;7289;50.706;4.992;2023-07-24T12:33:11;20.50;99.90
14409;DHT22;7289;50.706;4.992;2023-07-24T12:35:39;20.60;99.90
14409;DHT22;7289;50.706;4.992;2023-07-24T12:38:08;20.70;99.90
14409;DHT22;7289;50.706;4.992;2023-07-24T12:40:36;20.80;99.90
14409;DHT22;7289;50.706;4.992;2023-07-24T12:43:04;20.60;99.90
14409;DHT22;7289;50.706;4.992;2023-07-24T12:45:34;20.70;99.90
14409;DHT22;7289;50.706;4.992;2023-07-24T12:48:04;20.70;99.90
14409;DHT22;7289;50.706;4.992;2023-07-24T12:50:33;20.70;99.90
14409;DHT22;7289;50.706;4.992;2023-07-24T12:53:01;20.70;99.90
14409;DHT22;7289;50.706;4.992;2023-07-24T12:55:35;20.70;99.90
14409;DHT22;7289;50.706;4.992;2023-07-24T12:58:04;20.80;99.90
14409;DHT22;7289;50.706;4.992;2023-07-24T13:00:32;20.90;99.90
14409;DHT22;7289;50.706;4.992;2023-07-24T13:03:00;21.10;99.90
14409;DHT22;7289;50.706;4.992;2023-07-24T13:05:30;21.40;99.90
14409;DHT22;7289;50.706;4.992;2023-07-24T13:07:59;21.80;99.90
14409;DHT22;7289;50.706;4.992;2023-07-24T13:10:27;22.10;99.90
14409;DHT22;7289;50.706;4.992;2023-07-24T13:12:56;22.30;99.90
14409;DHT22;7289;50.706;4.992;2023-07-24T13:15:24;22.70;99.90
14409;DHT22;7289;50.706;4.992;2023-07-24T13:17:53;22.90;99.70
14409;DHT22;7289;50.706;4.992;2023-07-24T13:20:21;22.80;99.90
14409;DHT22;7289;50.706;4.992;2023-07-24T13:22:51;23.00;99.60
14409;DHT22;7289;50.706;4.992;2023-07-24T13:25:19;23.10;99.60
14409;DHT22;7289;50.706;4.992;2023-07-24T13:27:47;23.30;99.60
14409;DHT22;7289;50.706;4.992;2023-07-24T13:30:16;23.10;98.80
14409;DHT22;7289;50.706;4.992;2023-07-24T13:32:45;22.80;99.40
14409;DHT22;7289;50.706;4.992;2023-07-24T13:35:13;22.60;99.90
14409;DHT22;7289;50.706;4.992;2023-07-24T13:37:42;22.90;99.90
14409;DHT22;7289;50.706;4.992;2023-07-24T13:40:12;23.10;99.00
14409;DHT22;7289;50.706;4.992;2023-07-24T13:42:40;23.30;98.60
14409;DHT22;7289;50.706;4.992;2023-07-24T13:45:09;23.50;97.70
14409;DHT22;7289;50.706;4.992;2023-07-24T13:47:38;23.60;97.50
14409;DHT22;7289;50.706;4.992;2023-07-24T13:50:06;23.70;97.00
14409;DHT22;7289;50.706;4.992;2023-07-24T13:52:36;23.60;97.00
14409;DHT22;7289;50.706;4.992;2023-07-24T13:55:05;23.60;97.40
14409;DHT22;7289;50.706;4.992;2023-07-24T13:57:34;23.40;97.10
14409;DHT22;7289;50.706;4.992;2023-07-24T14:00:04;23.50;97.60
14409;DHT22;7289;50.706;4.992;2023-07-24T14:02:38;23.40;97.40
14409;DHT22;7289;50.706;4.992;2023-07-24T14:05:16;23.10;98.10
14409;DHT22;7289;50.706;4.992;2023-07-24T14:07:44;22.90;98.20
14409;DHT22;7289;50.706;4.992;2023-07-24T14:10:12;22.60;98.50
14409;DHT22;7289;50.706;4.992;2023-07-24T14:12:42;22.60;99.20
14409;DHT22;7289;50.706;4.992;2023-07-24T14:15:10;22.70;98.80
14409;DHT22;7289;50.706;4.992;2023-07-24T14:17:39;22.90;99.10
14409;DHT22;7289;50.706;4.992;2023-07-24T14:20:09;23.00;98.90
14409;DHT22;7289;50.706;4.992;2023-07-24T14:22:38;23.00;98.50
14409;DHT22;7289;50.706;4.992;2023-07-24T14:25:07;23.00;98.10
14409;DHT22;7289;50.706;4.992;2023-07-24T14:27:35;23.20;98.40
14409;DHT22;7289;50.706;4.992;2023-07-24T14:30:08;23.30;97.10
14409;DHT22;7289;50.706;4.992;2023-07-24T14:32:37;23.40;97.30
14409;DHT22;7289;50.706;4.992;2023-07-24T14:35:06;23.50;96.80
14409;DHT22;7289;50.706;4.992;2023-07-24T14:37:35;23.40;97.00
14409;DHT22;7289;50.706;4.992;2023-07-24T14:40:04;23.10;96.50
14409;DHT22;7289;50.706;4.992;2023-07-24T14:42:32;23.00;97.00
14409;DHT22;7289;50.706;4.992;2023-07-24T14:45:01;23.00;97.20
14409;DHT22;7289;50.706;4.992;2023-07-24T14:47:32;23.00;97.20
14409;DHT22;7289;50.706;4.992;2023-07-24T14:50:01;22.90;96.40
14409;DHT22;7289;50.706;4.992;2023-07-24T14:52:29;22.60;96.70
14409;DHT22;7289;50.706;4.992;2023-07-24T14:54:57;22.50;96.40
14409;DHT22;7289;50.706;4.992;2023-07-24T14:57:27;22.40;96.80
14409;DHT22;7289;50.706;4.992;2023-07-24T14:59:55;22.50;97.50
14409;DHT22;7289;50.706;4.992;2023-07-24T15:02:23;22.40;95.90
14409;DHT22;7289;50.706;4.992;2023-07-24T15:04:54;22.40;96.30
14409;DHT22;7289;50.706;4.992;2023-07-24T15:07:22;22.40;96.80
14409;DHT22;7289;50.706;4.992;2023-07-24T15:09:51;22.30;97.00
14409;DHT22;7289;50.706;4.992;2023-07-24T15:12:20;22.40;96.50
14409;DHT22;7289;50.706;4.992;2023-07-24T15:14:48;22.40;96.50
14409;DHT22;7289;50.706;4.992;2023-07-24T15:17:16;22.50;96.50
14409;DHT22;7289;50.706;4.992;2023-07-24T15:19:45;22.60;96.40
14409;DHT22;7289;50.706;4.992;2023-07-24T15:22:15;22.60;96.20
14409;DHT22;7289;50.706;4.992;2023-07-24T15:24:43;22.70;96.80
14409;DHT22;7289;50.706;4.992;2023-07-24T15:27:11;22.80;96.50
14409;DHT22;7289;50.706;4.992;2023-07-24T15:29:40;23.10;96.10
14409;DHT22;7289;50.706;4.992;2023-07-24T15:32:08;23.10;95.90
14409;DHT22;7289;50.706;4.992;2023-07-24T15:34:36;23.20;96.20
14409;DHT22;7289;50.706;4.992;2023-07-24T15:37:06;23.40;95.40
14409;DHT22;7289;50.706;4.992;2023-07-24T15:39:36;23.50;96.30
14409;DHT22;7289;50.706;4.992;2023-07-24T15:42:04;23.80;95.60
14409;DHT22;7289;50.706;4.992;2023-07-24T15:44:33;23.90;94.80
14409;DHT22;7289;50.706;4.992;2023-07-24T15:47:01;24.10;94.80
14409;DHT22;7289;50.706;4.992;2023-07-24T15:49:30;24.30;94.40
14409;DHT22;7289;50.706;4.992;2023-07-24T15:51:58;24.20;94.40
14409;DHT22;7289;50.706;4.992;2023-07-24T15:54:26;24.10;95.00
14409;DHT22;7289;50.706;4.992;2023-07-24T15:56:56;24.00;93.60
14409;DHT22;7289;50.706;4.992;2023-07-24T15:59:24;23.90;93.80